createdAt,value
2023-02-19T00:00:00.013Z,0
2023-02-19T00:00:59.932Z,0
2023-02-19T00:02:00.831Z,0
2023-02-19T00:03:01.814Z,0
2023-02-19T00:04:03.115Z,0
2023-02-19T00:05:03.921Z,0
2023-02-19T00:06:03.851Z,0
2023-02-19T00:07:05.349Z,0
2023-02-19T00:08:05.260Z,0
2023-02-19T00:09:05.392Z,0
2023-02-19T00:10:05.419Z,0
2023-02-19T00:11:06.333Z,0
2023-02-19T00:12:07.232Z,0
2023-02-19T00:13:08.739Z,0
2023-02-19T00:14:08.946Z,0
2023-02-19T00:15:09.867Z,0
2023-02-19T00:16:10.604Z,0
2023-02-19T00:17:10.537Z,0
2023-02-19T00:18:11.459Z,0
2023-02-19T00:19:12.674Z,0
2023-02-19T00:20:13.532Z,0
2023-02-19T00:21:14.228Z,0
2023-02-19T00:22:14.454Z,0
2023-02-19T00:23:15.044Z,0
2023-02-19T00:24:15.018Z,0
2023-02-19T00:25:15.944Z,0
2023-02-19T00:26:32.564Z,0
2023-02-19T00:27:16.774Z,0
2023-02-19T00:28:16.992Z,0
2023-02-19T00:29:16.900Z,0
2023-02-19T00:30:18.751Z,0
2023-02-19T00:31:19.855Z,0
2023-02-19T00:32:18.745Z,0
2023-02-19T00:33:19.691Z,0
2023-02-19T00:34:20.347Z,0
2023-02-19T00:35:21.985Z,0
2023-02-19T00:36:21.895Z,0
2023-02-19T00:37:22.820Z,0
2023-02-19T00:38:23.816Z,0
2023-02-19T00:39:23.749Z,0
2023-02-19T00:40:24.479Z,0
2023-02-19T00:41:25.115Z,0
2023-02-19T00:42:26.063Z,0
2023-02-19T00:43:27.590Z,0
2023-02-19T00:44:27.886Z,0
2023-02-19T00:45:27.515Z,0
2023-02-19T00:46:29.061Z,0
2023-02-19T00:47:29.276Z,0
2023-02-19T00:48:29.472Z,0
2023-02-19T00:49:29.461Z,0
2023-02-19T00:50:30.894Z,0
2023-02-19T00:51:30.525Z,0
2023-02-19T00:52:31.749Z,0
2023-02-19T00:53:31.357Z,0
2023-02-19T00:54:32.575Z,0
2023-02-19T00:55:32.710Z,0
2023-02-19T00:56:32.947Z,0
2023-02-19T00:57:33.184Z,0
2023-02-19T00:58:33.835Z,0
2023-02-19T00:59:34.457Z,0
2023-02-19T01:00:35.746Z,0
2023-02-19T01:01:36.080Z,0
2023-02-19T01:02:35.748Z,0
2023-02-19T01:03:36.969Z,0
2023-02-19T01:04:37.566Z,0
2023-02-19T01:05:38.951Z,0
2023-02-19T01:06:39.186Z,0
2023-02-19T01:07:39.084Z,0
2023-02-19T01:08:40.281Z,0
2023-02-19T01:09:40.183Z,0
2023-02-19T01:10:40.648Z,0
2023-02-19T01:11:41.561Z,0
2023-02-19T01:12:43.078Z,0
2023-02-19T01:13:42.729Z,0
2023-02-19T01:14:43.923Z,0
2023-02-19T01:15:44.440Z,0
2023-02-19T01:16:44.543Z,0
2023-02-19T01:17:44.451Z,0
2023-02-19T01:18:45.086Z,0
2023-02-19T01:19:46.291Z,0
2023-02-19T01:20:46.979Z,0
2023-02-19T01:21:47.520Z,0
2023-02-19T01:22:47.428Z,0
2023-02-19T01:23:48.653Z,0
2023-02-19T01:24:49.297Z,0
2023-02-19T01:25:50.192Z,0
2023-02-19T01:26:51.115Z,0
2023-02-19T01:27:52.675Z,0
2023-02-19T01:28:52.324Z,0
2023-02-19T01:29:53.522Z,0
2023-02-19T01:30:53.987Z,0
2023-02-19T01:31:55.517Z,0
2023-02-19T01:32:55.481Z,0
2023-02-19T01:33:56.408Z,0
2023-02-19T01:34:57.317Z,0
2023-02-19T01:35:58.639Z,0
2023-02-19T01:36:58.839Z,0
2023-02-19T01:37:59.084Z,0
2023-02-19T01:38:59.023Z,0
2023-02-19T01:40:00.251Z,0
2023-02-19T01:41:00.545Z,0
2023-02-19T01:42:01.034Z,0
2023-02-19T01:43:01.233Z,0
2023-02-19T01:44:00.877Z,0
2023-02-19T01:45:02.136Z,0
2023-02-19T01:46:02.065Z,0
2023-02-19T01:47:02.841Z,0
2023-02-19T01:48:03.757Z,0
2023-02-19T01:49:04.245Z,0
2023-02-19T01:50:04.452Z,0
2023-02-19T01:51:05.175Z,0
2023-02-19T01:52:05.373Z,0
2023-02-19T01:53:06.598Z,0
2023-02-19T01:54:06.533Z,0
2023-02-19T01:55:07.197Z,0
2023-02-19T01:56:08.191Z,0
2023-02-19T01:57:09.692Z,0
2023-02-19T01:58:09.880Z,0
2023-02-19T01:59:10.120Z,0
2023-02-19T02:00:10.030Z,0
2023-02-19T02:01:12.099Z,0
2023-02-19T02:02:12.229Z,0
2023-02-19T02:03:12.462Z,0
2023-02-19T02:04:13.672Z,0
2023-02-19T02:05:13.575Z,0
2023-02-19T02:06:14.902Z,0
2023-02-19T02:07:15.102Z,0
2023-02-19T02:08:15.592Z,0
2023-02-19T02:09:16.083Z,0
2023-02-19T02:10:16.314Z,0
2023-02-19T02:11:16.407Z,0
2023-02-19T02:12:17.892Z,0
2023-02-19T02:13:18.103Z,0
2023-02-19T02:14:18.015Z,0
2023-02-19T02:15:19.260Z,0
2023-02-19T02:16:19.692Z,0
2023-02-19T02:17:19.668Z,0
2023-02-19T02:18:20.166Z,0
2023-02-19T02:19:20.108Z,0
2023-02-19T02:20:20.715Z,0
2023-02-19T02:21:21.588Z,0
2023-02-19T02:22:20.537Z,0
2023-02-19T02:23:20.870Z,0
2023-02-19T02:24:22.087Z,0
2023-02-19T02:25:22.300Z,0
2023-02-19T02:26:22.266Z,0
2023-02-19T02:27:22.641Z,0
2023-02-19T02:28:23.873Z,0
2023-02-19T02:29:24.066Z,0
2023-02-19T02:30:24.180Z,0
2023-02-19T02:31:26.033Z,0
2023-02-19T02:32:25.828Z,0
2023-02-19T02:33:26.062Z,0
2023-02-19T02:34:25.977Z,0
2023-02-19T02:35:26.893Z,0
2023-02-19T02:36:28.486Z,0
2023-02-19T02:37:28.678Z,0
2023-02-19T02:38:28.886Z,0
2023-02-19T02:39:29.812Z,0
2023-02-19T02:40:30.326Z,0
2023-02-19T02:41:30.325Z,0
2023-02-19T02:42:30.308Z,0
2023-02-19T02:43:30.983Z,0
2023-02-19T02:44:32.021Z,0
2023-02-19T02:45:31.976Z,0
2023-02-19T02:46:33.503Z,0
2023-02-19T02:47:33.136Z,0
2023-02-19T02:48:33.228Z,0
2023-02-19T02:49:34.871Z,0
2023-02-19T02:50:35.795Z,0
2023-02-19T02:51:36.904Z,0
2023-02-19T02:52:36.911Z,0
2023-02-19T02:53:38.433Z,0
2023-02-19T02:54:38.352Z,0
2023-02-19T02:55:38.991Z,0
2023-02-19T02:56:39.965Z,0
2023-02-19T02:57:41.184Z,0
2023-02-19T02:58:40.548Z,0
2023-02-19T02:59:41.761Z,0
2023-02-19T03:00:42.064Z,0
2023-02-19T03:01:42.123Z,0
2023-02-19T03:02:42.019Z,0
2023-02-19T03:03:42.941Z,0
2023-02-19T03:04:43.882Z,0
2023-02-19T03:05:44.819Z,0
2023-02-19T03:06:44.453Z,0
2023-02-19T03:07:45.390Z,0
2023-02-19T03:08:45.597Z,0
2023-02-19T03:09:46.100Z,0
2023-02-19T03:10:46.521Z,0
2023-02-19T03:11:47.523Z,0
2023-02-19T03:12:47.733Z,0
2023-02-19T03:13:47.655Z,0
2023-02-19T03:14:48.931Z,0
2023-02-19T03:15:49.586Z,0
2023-02-19T03:16:53.966Z,0
2023-02-19T03:17:51.198Z,0
2023-02-19T03:18:51.693Z,0
2023-02-19T03:19:51.621Z,0
2023-02-19T03:20:51.817Z,0
2023-02-19T03:21:52.830Z,0
2023-02-19T03:22:53.320Z,0
2023-02-19T03:23:52.959Z,0
2023-02-19T03:24:54.165Z,0
2023-02-19T03:25:54.701Z,0
2023-02-19T03:26:54.211Z,0
2023-02-19T03:27:54.878Z,0
2023-02-19T03:28:56.076Z,0
2023-02-19T03:29:57.007Z,0
2023-02-19T03:30:56.951Z,0
2023-02-19T03:31:59.041Z,0
2023-02-19T03:32:59.011Z,0
2023-02-19T03:33:59.928Z,0
2023-02-19T03:35:00.843Z,0
2023-02-19T03:36:02.342Z,0
2023-02-19T03:37:02.561Z,0
2023-02-19T03:38:03.486Z,0
2023-02-19T03:39:03.423Z,0
2023-02-19T03:40:04.638Z,0
2023-02-19T03:41:05.573Z,0
2023-02-19T03:42:05.852Z,0
2023-02-19T03:43:07.330Z,0
2023-02-19T03:44:06.564Z,0
2023-02-19T03:45:07.184Z,0
2023-02-19T03:46:08.889Z,0
2023-02-19T03:47:09.091Z,0
2023-02-19T03:48:09.582Z,0
2023-02-19T03:49:09.501Z,0
2023-02-19T03:50:09.423Z,0
2023-02-19T03:51:10.643Z,0
2023-02-19T03:52:10.818Z,0
2023-02-19T03:53:11.726Z,0
2023-02-19T03:54:12.218Z,0
2023-02-19T03:55:12.138Z,0
2023-02-19T03:56:12.771Z,0
2023-02-19T03:57:13.972Z,0
2023-02-19T03:58:13.889Z,0
2023-02-19T03:59:14.810Z,0
2023-02-19T04:00:15.736Z,0
2023-02-19T04:01:16.882Z,0
2023-02-19T04:02:17.305Z,0
2023-02-19T04:03:17.792Z,0
2023-02-19T04:04:17.538Z,0
2023-02-19T04:05:19.453Z,0
2023-02-19T04:06:19.647Z,0
2023-02-19T04:07:20.142Z,0
2023-02-19T04:08:19.796Z,0
2023-02-19T04:09:20.442Z,0
2023-02-19T04:10:21.714Z,0
2023-02-19T04:11:22.485Z,0
2023-02-19T04:12:22.564Z,0
2023-02-19T04:13:22.769Z,0
2023-02-19T04:14:22.989Z,0
2023-02-19T04:15:23.481Z,0
2023-02-19T04:16:23.958Z,0
2023-02-19T04:17:23.897Z,0
2023-02-19T04:18:24.812Z,0
2023-02-19T04:19:26.010Z,0
2023-02-19T04:20:25.687Z,0
2023-02-19T04:21:26.795Z,0
2023-02-19T04:22:27.782Z,0
2023-02-19T04:23:28.321Z,0
2023-02-19T04:24:27.966Z,0
2023-02-19T04:25:29.173Z,0
2023-02-19T04:26:29.419Z,0
2023-02-19T04:27:29.315Z,0
2023-02-19T04:28:29.945Z,0
2023-02-19T04:29:30.863Z,0
2023-02-19T04:30:32.322Z,0
2023-02-19T04:31:32.491Z,0
2023-02-19T04:32:33.438Z,0
2023-02-19T04:33:33.076Z,0
2023-02-19T04:34:33.723Z,0
2023-02-19T04:35:34.344Z,0
2023-02-19T04:36:35.833Z,0
2023-02-19T04:37:36.040Z,0
2023-02-19T04:38:36.252Z,0
2023-02-19T04:39:36.893Z,0
2023-02-19T04:40:38.093Z,0
2023-02-19T04:41:38.304Z,0
2023-02-19T04:42:39.602Z,0
2023-02-19T04:43:39.829Z,0
2023-02-19T04:44:40.171Z,0
2023-02-19T04:45:41.082Z,0
2023-02-19T04:46:43.099Z,0
2023-02-19T04:47:41.688Z,0
2023-02-19T04:48:42.178Z,0
2023-02-19T04:49:41.844Z,0
2023-02-19T04:50:43.041Z,0
2023-02-19T04:51:43.664Z,0
2023-02-19T04:52:44.393Z,0
2023-02-19T04:53:45.604Z,0
2023-02-19T04:54:45.691Z,0
2023-02-19T04:55:47.176Z,0
2023-02-19T04:56:47.750Z,0
2023-02-19T04:57:47.987Z,0
2023-02-19T04:58:48.628Z,0
2023-02-19T04:59:49.266Z,0
2023-02-19T05:00:50.178Z,0
2023-02-19T05:01:51.850Z,0
2023-02-19T05:02:52.301Z,0
2023-02-19T05:03:52.950Z,0
2023-02-19T05:04:54.088Z,0
2023-02-19T05:05:54.707Z,0
2023-02-19T05:06:56.209Z,0
2023-02-19T05:07:56.131Z,0
2023-02-19T05:08:57.324Z,0
2023-02-19T05:09:57.820Z,0
2023-02-19T05:10:58.023Z,0
2023-02-19T05:11:58.962Z,0
2023-02-19T05:13:03.204Z,0
2023-02-19T05:14:00.186Z,0
2023-02-19T05:15:00.831Z,0
2023-02-19T05:16:01.957Z,0
2023-02-19T05:17:02.486Z,0
2023-02-19T05:18:02.700Z,0
2023-02-19T05:19:02.339Z,0
2023-02-19T05:20:02.960Z,0
2023-02-19T05:21:03.888Z,0
2023-02-19T05:22:05.111Z,0
2023-02-19T05:23:06.175Z,0
2023-02-19T05:24:06.381Z,0
2023-02-19T05:25:06.313Z,0
2023-02-19T05:26:07.319Z,0
2023-02-19T05:27:07.953Z,0
2023-02-19T05:28:08.866Z,0
2023-02-19T05:29:09.771Z,0
2023-02-19T05:30:10.979Z,0
2023-02-19T05:31:11.060Z,0
2023-02-19T05:32:11.782Z,0
2023-02-19T05:33:12.097Z,0
2023-02-19T05:34:11.764Z,0
2023-02-19T05:35:12.437Z,0
2023-02-19T05:36:13.931Z,0
2023-02-19T05:37:14.172Z,0
2023-02-19T05:38:14.085Z,0
2023-02-19T05:39:14.003Z,0
2023-02-19T05:40:15.490Z,0
2023-02-19T05:41:16.202Z,0
2023-02-19T05:42:16.132Z,0
2023-02-19T05:43:16.579Z,0
2023-02-19T05:44:17.498Z,0
2023-02-19T05:45:18.704Z,0
2023-02-19T05:46:19.123Z,0
2023-02-19T05:47:18.795Z,0
2023-02-19T05:48:19.721Z,0
2023-02-19T05:49:20.655Z,0
2023-02-19T05:50:21.575Z,0
2023-02-19T05:51:22.024Z,0
2023-02-19T05:52:21.658Z,0
2023-02-19T05:53:22.380Z,0
2023-02-19T05:54:23.005Z,0
2023-02-19T05:55:23.655Z,0
2023-02-19T05:56:24.588Z,0
2023-02-19T05:57:24.957Z,0
2023-02-19T05:58:26.159Z,0
2023-02-19T05:59:26.819Z,0
2023-02-19T06:00:27.436Z,0
2023-02-19T06:01:28.645Z,0
2023-02-19T06:02:28.671Z,0
2023-02-19T06:03:28.573Z,0
2023-02-19T06:04:29.529Z,0
2023-02-19T06:05:29.486Z,0
2023-02-19T06:06:30.424Z,0
2023-02-19T06:07:31.647Z,0
2023-02-19T06:08:31.280Z,0
2023-02-19T06:09:32.202Z,0
2023-02-19T06:10:33.113Z,0
2023-02-19T06:11:34.044Z,0
2023-02-19T06:12:34.957Z,0
2023-02-19T06:13:36.261Z,0
2023-02-19T06:14:36.172Z,0
2023-02-19T06:15:37.458Z,0
2023-02-19T06:16:38.023Z,0
2023-02-19T06:17:38.539Z,0
2023-02-19T06:18:38.496Z,0
2023-02-19T06:19:38.439Z,0
2023-02-19T06:20:41.357Z,0
2023-02-19T06:21:40.568Z,0
2023-02-19T06:22:40.766Z,0
2023-02-19T06:23:40.653Z,0
2023-02-19T06:24:41.931Z,0
2023-02-19T06:25:42.147Z,0
2023-02-19T06:26:42.661Z,0
2023-02-19T06:27:42.577Z,0
2023-02-19T06:28:43.811Z,0
2023-02-19T06:29:43.865Z,0
2023-02-19T06:30:43.766Z,0
2023-02-19T06:31:45.285Z,0
2023-02-19T06:32:45.574Z,0
2023-02-19T06:33:45.877Z,0
2023-02-19T06:34:47.125Z,0
2023-02-19T06:35:47.353Z,0
2023-02-19T06:36:47.269Z,0
2023-02-19T06:37:47.628Z,0
2023-02-19T06:38:49.126Z,0
2023-02-19T06:39:48.756Z,0
2023-02-19T06:40:49.671Z,0
2023-02-19T06:41:50.609Z,0
2023-02-19T06:42:50.708Z,0
2023-02-19T06:43:51.986Z,0
2023-02-19T06:44:52.650Z,0
2023-02-19T06:45:53.560Z,0
2023-02-19T06:46:54.222Z,0
2023-02-19T06:47:55.516Z,0
2023-02-19T06:48:55.727Z,0
2023-02-19T06:49:55.651Z,0
2023-02-19T06:50:56.898Z,0
2023-02-19T06:51:57.819Z,0
2023-02-19T06:52:58.016Z,0
2023-02-19T06:53:58.752Z,0
2023-02-19T06:54:59.985Z,5.63
2023-02-19T06:56:00.480Z,5.63
2023-02-19T06:57:03.038Z,5.63
2023-02-19T06:58:00.959Z,5.63
2023-02-19T06:59:01.598Z,5.63
2023-02-19T07:00:03.093Z,5.63
2023-02-19T07:01:03.696Z,5.63
2023-02-19T07:02:03.356Z,5.63
2023-02-19T07:03:05.566Z,5.63
2023-02-19T07:04:05.443Z,5.63
2023-02-19T07:05:05.681Z,5.63
2023-02-19T07:06:06.615Z,5.63
2023-02-19T07:07:06.833Z,11.25
2023-02-19T07:08:07.332Z,11.25
2023-02-19T07:09:07.261Z,11.25
2023-02-19T07:10:08.200Z,11.25
2023-02-19T07:11:08.341Z,11.25
2023-02-19T07:12:08.771Z,11.25
2023-02-19T07:13:10.264Z,11.25
2023-02-19T07:14:10.309Z,11.25
2023-02-19T07:15:10.803Z,11.25
2023-02-19T07:16:10.212Z,16.88
2023-02-19T07:17:10.879Z,16.88
2023-02-19T07:18:11.814Z,16.88
2023-02-19T07:19:11.761Z,16.88
2023-02-19T07:20:12.984Z,16.88
2023-02-19T07:21:13.728Z,16.88
2023-02-19T07:22:14.013Z,16.88
2023-02-19T07:23:13.373Z,16.88
2023-02-19T07:24:14.657Z,22.5
2023-02-19T07:25:14.573Z,16.88
2023-02-19T07:26:16.161Z,11.25
2023-02-19T07:27:15.795Z,16.88
2023-02-19T07:28:17.004Z,16.88
2023-02-19T07:29:16.649Z,16.88
2023-02-19T07:30:18.100Z,16.88
2023-02-19T07:31:19.145Z,16.88
2023-02-19T07:32:19.274Z,16.88
2023-02-19T07:33:21.467Z,16.88
2023-02-19T07:34:20.198Z,16.88
2023-02-19T07:35:21.410Z,16.88
2023-02-19T07:36:21.319Z,16.88
2023-02-19T07:37:21.994Z,22.5
2023-02-19T07:38:23.201Z,22.5
2023-02-19T07:39:26.712Z,22.5
2023-02-19T07:40:24.912Z,16.88
2023-02-19T07:41:26.569Z,16.88
2023-02-19T07:42:27.058Z,22.5
2023-02-19T07:43:26.988Z,22.5
2023-02-19T07:44:27.580Z,16.88
2023-02-19T07:45:27.250Z,16.88
2023-02-19T07:46:28.465Z,16.88
2023-02-19T07:47:29.677Z,16.88
2023-02-19T07:48:29.881Z,16.88
2023-02-19T07:49:30.099Z,16.88
2023-02-19T07:50:31.349Z,16.88
2023-02-19T07:51:31.346Z,16.88
2023-02-19T07:52:32.555Z,16.88
2023-02-19T07:53:32.241Z,16.88
2023-02-19T07:54:33.267Z,16.88
2023-02-19T07:55:32.921Z,16.88
2023-02-19T07:56:33.595Z,16.88
2023-02-19T07:57:34.239Z,16.88
2023-02-19T07:58:35.532Z,16.88
2023-02-19T07:59:35.757Z,16.88
2023-02-19T08:00:35.671Z,16.88
2023-02-19T08:01:36.750Z,16.88
2023-02-19T08:02:37.009Z,16.88
2023-02-19T08:03:37.866Z,16.88
2023-02-19T08:04:37.932Z,22.5
2023-02-19T08:05:38.581Z,22.5
2023-02-19T08:06:40.101Z,22.5
2023-02-19T08:07:40.026Z,22.5
2023-02-19T08:08:40.661Z,22.5
2023-02-19T08:09:41.316Z,28.13
2023-02-19T08:10:42.528Z,28.13
2023-02-19T08:11:43.149Z,33.75
2023-02-19T08:12:42.814Z,33.75
2023-02-19T08:13:43.752Z,28.13
2023-02-19T08:14:44.470Z,33.75
2023-02-19T08:15:45.417Z,39.38
2023-02-19T08:17:00.025Z,45
2023-02-19T08:17:46.341Z,45
2023-02-19T08:18:46.553Z,45
2023-02-19T08:19:46.750Z,45
2023-02-19T08:20:46.392Z,39.38
2023-02-19T08:21:49.406Z,45
2023-02-19T08:22:48.621Z,50.63
2023-02-19T08:23:51.097Z,45
2023-02-19T08:24:50.853Z,45
2023-02-19T08:25:50.785Z,45
2023-02-19T08:26:52.328Z,39.38
2023-02-19T08:27:52.270Z,39.38
2023-02-19T08:28:53.491Z,39.38
2023-02-19T08:29:53.432Z,39.38
2023-02-19T08:30:54.561Z,45
2023-02-19T08:31:55.372Z,39.38
2023-02-19T08:32:55.592Z,39.38
2023-02-19T08:33:55.792Z,39.38
2023-02-19T08:34:56.240Z,39.38
2023-02-19T08:35:57.180Z,39.38
2023-02-19T08:36:57.399Z,39.38
2023-02-19T08:37:57.590Z,39.38
2023-02-19T08:38:58.542Z,39.38
2023-02-19T08:39:59.163Z,39.38
2023-02-19T08:41:00.122Z,39.38
2023-02-19T08:42:00.487Z,39.38
2023-02-19T08:43:02.429Z,39.38
2023-02-19T08:44:02.935Z,39.38
2023-02-19T08:45:02.969Z,39.38
2023-02-19T08:46:03.846Z,39.38
2023-02-19T08:47:04.040Z,39.38
2023-02-19T08:48:04.659Z,33.75
2023-02-19T08:49:04.646Z,33.75
2023-02-19T08:50:04.850Z,33.75
2023-02-19T08:51:05.366Z,33.75
2023-02-19T08:52:05.571Z,28.13
2023-02-19T08:53:05.489Z,28.13
2023-02-19T08:54:06.406Z,28.13
2023-02-19T08:55:08.045Z,28.13
2023-02-19T08:56:07.451Z,22.5
2023-02-19T08:57:07.370Z,22.5
2023-02-19T08:58:08.607Z,28.13
2023-02-19T08:59:08.842Z,28.13
2023-02-19T09:00:08.762Z,33.75
2023-02-19T09:01:10.284Z,39.38
2023-02-19T09:02:10.745Z,39.38
2023-02-19T09:03:11.088Z,39.38
2023-02-19T09:04:11.170Z,39.38
2023-02-19T09:05:10.897Z,39.38
2023-02-19T09:06:12.640Z,39.38
2023-02-19T09:07:12.924Z,39.38
2023-02-19T09:08:13.210Z,39.38
2023-02-19T09:09:13.882Z,39.38
2023-02-19T09:10:14.570Z,39.38
2023-02-19T09:11:16.224Z,39.38
2023-02-19T09:12:16.759Z,39.38
2023-02-19T09:13:16.970Z,39.38
2023-02-19T09:14:16.591Z,39.38
2023-02-19T09:15:17.613Z,39.38
2023-02-19T09:16:17.801Z,33.75
2023-02-19T09:17:17.742Z,33.75
2023-02-19T09:18:18.942Z,33.75
2023-02-19T09:19:19.165Z,33.75
2023-02-19T09:20:18.831Z,33.75
2023-02-19T09:21:20.999Z,33.75
2023-02-19T09:22:20.197Z,33.75
2023-02-19T09:23:21.126Z,33.75
2023-02-19T09:24:21.083Z,33.75
2023-02-19T09:25:22.483Z,33.75
2023-02-19T09:26:22.761Z,33.75
2023-02-19T09:27:23.432Z,28.13
2023-02-19T09:28:24.639Z,33.75
2023-02-19T09:29:24.551Z,33.75
2023-02-19T09:30:25.862Z,33.75
2023-02-19T09:31:28.131Z,33.75
2023-02-19T09:32:30.129Z,33.75
2023-02-19T09:33:27.875Z,33.75
2023-02-19T09:34:28.782Z,33.75
2023-02-19T09:35:29.775Z,33.75
2023-02-19T09:36:30.996Z,33.75
2023-02-19T09:37:34.005Z,33.75
2023-02-19T09:38:31.975Z,33.75
2023-02-19T09:39:32.631Z,33.75
2023-02-19T09:40:33.841Z,33.75
2023-02-19T09:41:34.372Z,33.75
2023-02-19T09:42:33.750Z,39.38
2023-02-19T09:43:34.962Z,39.38
2023-02-19T09:44:34.610Z,39.38
2023-02-19T09:45:35.057Z,39.38
2023-02-19T09:46:36.200Z,39.38
2023-02-19T09:47:36.544Z,45
2023-02-19T09:48:37.476Z,45
2023-02-19T09:49:37.669Z,45
2023-02-19T09:50:37.884Z,45
2023-02-19T09:51:38.813Z,45
2023-02-19T09:52:39.023Z,45
2023-02-19T09:53:38.656Z,45
2023-02-19T09:54:39.602Z,45
2023-02-19T09:55:39.775Z,50.63
2023-02-19T09:56:41.297Z,50.63
2023-02-19T09:57:40.754Z,50.63
2023-02-19T09:58:41.677Z,50.63
2023-02-19T09:59:42.060Z,45
2023-02-19T10:00:43.313Z,45
2023-02-19T10:01:44.038Z,45
2023-02-19T10:02:44.294Z,45
2023-02-19T10:03:45.506Z,39.38
2023-02-19T10:04:45.847Z,39.38
2023-02-19T10:05:46.328Z,39.38
2023-02-19T10:06:46.878Z,39.38
2023-02-19T10:07:47.108Z,39.38
2023-02-19T10:08:47.319Z,39.38
2023-02-19T10:09:47.810Z,39.38
2023-02-19T10:10:47.749Z,45
2023-02-19T10:11:48.245Z,45
2023-02-19T10:12:48.597Z,50.63
2023-02-19T10:13:48.799Z,56.25
2023-02-19T10:14:48.722Z,56.25
2023-02-19T10:15:49.848Z,61.88
2023-02-19T10:16:49.782Z,67.5
2023-02-19T10:17:50.701Z,67.5
2023-02-19T10:18:51.911Z,61.88
2023-02-19T10:19:52.401Z,61.88
2023-02-19T10:20:52.700Z,61.88
2023-02-19T10:21:52.906Z,61.88
2023-02-19T10:22:52.815Z,61.88
2023-02-19T10:23:54.318Z,61.88
2023-02-19T10:24:55.267Z,61.88
2023-02-19T10:25:55.545Z,56.25
2023-02-19T10:26:55.466Z,61.88
2023-02-19T10:27:56.671Z,67.5
2023-02-19T10:28:57.906Z,73.13
2023-02-19T10:29:58.399Z,67.5
2023-02-19T10:30:58.569Z,67.5
2023-02-19T10:31:59.435Z,61.88
2023-02-19T10:32:59.681Z,61.88
2023-02-19T10:33:59.889Z,56.25
2023-02-19T10:35:00.137Z,56.25
2023-02-19T10:36:01.181Z,61.88
2023-02-19T10:37:01.405Z,67.5
2023-02-19T10:38:02.362Z,67.5
2023-02-19T10:39:02.582Z,61.88
2023-02-19T10:40:02.954Z,61.88
2023-02-19T10:41:03.870Z,67.5
2023-02-19T10:42:04.574Z,78.75
2023-02-19T10:43:05.800Z,78.75
2023-02-19T10:44:06.315Z,67.5
2023-02-19T10:45:06.255Z,61.88
2023-02-19T10:46:07.086Z,67.5
2023-02-19T10:47:08.336Z,67.5
2023-02-19T10:48:08.972Z,61.88
2023-02-19T10:49:09.901Z,56.25
2023-02-19T10:50:15.373Z,56.25
2023-02-19T10:51:11.291Z,61.88
2023-02-19T10:52:11.761Z,67.5
2023-02-19T10:53:12.726Z,73.13
2023-02-19T10:54:14.243Z,73.13
2023-02-19T10:55:14.179Z,78.75
2023-02-19T10:56:15.180Z,84.38
2023-02-19T10:57:15.440Z,78.75
2023-02-19T10:58:15.365Z,84.38
2023-02-19T10:59:16.041Z,84.38
2023-02-19T11:00:16.976Z,67.5
2023-02-19T11:01:18.377Z,61.88
2023-02-19T11:02:18.440Z,56.25
2023-02-19T11:03:19.113Z,61.88
2023-02-19T11:04:20.192Z,67.5
2023-02-19T11:05:21.438Z,73.13
2023-02-19T11:06:22.475Z,78.75
2023-02-19T11:07:22.701Z,84.38
2023-02-19T11:08:23.349Z,90
2023-02-19T11:09:24.957Z,95.63
2023-02-19T11:10:24.697Z,90
2023-02-19T11:11:26.121Z,84.38
2023-02-19T11:12:25.856Z,78.75
2023-02-19T11:13:26.487Z,73.13
2023-02-19T11:14:27.274Z,67.5
2023-02-19T11:15:28.213Z,61.88
2023-02-19T11:16:29.825Z,61.88
2023-02-19T11:17:29.777Z,61.88
2023-02-19T11:18:30.996Z,61.88
2023-02-19T11:19:30.925Z,61.88
2023-02-19T11:20:31.309Z,73.13
2023-02-19T11:21:32.517Z,73.13
2023-02-19T11:22:32.757Z,95.63
2023-02-19T11:23:32.959Z,123.75
2023-02-19T11:24:32.918Z,112.5
2023-02-19T11:25:34.425Z,106.88
2023-02-19T11:26:35.495Z,95.63
2023-02-19T11:27:35.468Z,84.38
2023-02-19T11:28:35.346Z,90
2023-02-19T11:29:36.546Z,106.88
2023-02-19T11:30:41.080Z,118.13
2023-02-19T11:31:39.097Z,118.13
2023-02-19T11:32:39.418Z,106.88
2023-02-19T11:33:40.453Z,101.25
2023-02-19T11:34:40.700Z,106.88
2023-02-19T11:35:41.194Z,112.5
2023-02-19T11:36:42.352Z,95.63
2023-02-19T11:37:41.989Z,90
2023-02-19T11:38:42.353Z,95.63
2023-02-19T11:39:43.561Z,84.38
2023-02-19T11:40:43.489Z,78.75
2023-02-19T11:41:44.129Z,84.38
2023-02-19T11:42:46.010Z,84.38
2023-02-19T11:43:45.935Z,101.25
2023-02-19T11:44:46.942Z,118.13
2023-02-19T11:45:47.148Z,123.75
2023-02-19T11:46:47.827Z,123.75
2023-02-19T11:47:47.479Z,123.75
2023-02-19T11:48:48.142Z,101.25
2023-02-19T11:49:49.387Z,84.38
2023-02-19T11:50:49.657Z,84.38
2023-02-19T11:51:53.012Z,84.38
2023-02-19T11:52:49.927Z,90
2023-02-19T11:53:54.173Z,106.88
2023-02-19T11:54:51.377Z,112.5
2023-02-19T11:55:51.298Z,112.5
2023-02-19T11:56:52.591Z,112.5
2023-02-19T11:57:52.534Z,112.5
2023-02-19T11:58:53.453Z,101.25
2023-02-19T11:59:54.359Z,106.88
2023-02-19T12:00:55.291Z,146.25
2023-02-19T12:01:55.746Z,118.13
2023-02-19T12:02:55.968Z,106.88
2023-02-19T12:03:56.483Z,129.38
2023-02-19T12:04:56.250Z,112.5
2023-02-19T12:05:57.173Z,95.63
2023-02-19T12:06:57.973Z,95.63
2023-02-19T12:07:57.326Z,95.63
2023-02-19T12:08:58.875Z,112.5
2023-02-19T12:09:59.102Z,118.13
2023-02-19T12:10:59.318Z,123.75
2023-02-19T12:11:59.260Z,123.75
2023-02-19T12:13:00.462Z,123.75
2023-02-19T12:14:01.095Z,140.63
2023-02-19T12:15:02.471Z,123.75
2023-02-19T12:16:03.172Z,112.5
2023-02-19T12:17:03.723Z,112.5
2023-02-19T12:18:03.641Z,101.25
2023-02-19T12:19:04.572Z,101.25
2023-02-19T12:20:05.831Z,101.25
2023-02-19T12:21:06.053Z,180
2023-02-19T12:22:05.799Z,129.38
2023-02-19T12:23:07.014Z,112.5
2023-02-19T12:24:06.937Z,123.75
2023-02-19T12:25:07.639Z,129.38
2023-02-19T12:26:08.936Z,157.5
2023-02-19T12:27:09.077Z,123.75
2023-02-19T12:28:10.297Z,129.38
2023-02-19T12:29:10.216Z,157.5
2023-02-19T12:30:10.580Z,168.75
2023-02-19T12:31:11.409Z,275.63
2023-02-19T12:32:11.462Z,466.88
2023-02-19T12:33:12.444Z,669.38
2023-02-19T12:34:12.953Z,427.5
2023-02-19T12:35:12.584Z,185.63
2023-02-19T12:36:13.774Z,196.88
2023-02-19T12:37:14.311Z,157.5
2023-02-19T12:38:14.516Z,151.88
2023-02-19T12:39:15.443Z,135
2023-02-19T12:40:16.656Z,202.5
2023-02-19T12:41:16.857Z,213.75
2023-02-19T12:42:17.440Z,157.5
2023-02-19T12:43:17.353Z,157.5
2023-02-19T12:44:18.266Z,337.5
2023-02-19T12:45:19.480Z,191.25
2023-02-19T12:46:20.669Z,168.75
2023-02-19T12:47:19.433Z,174.38
2023-02-19T12:48:20.368Z,168.75
2023-02-19T12:49:21.305Z,343.13
2023-02-19T12:50:21.280Z,714.38
2023-02-19T12:51:22.794Z,225
2023-02-19T12:52:23.032Z,663.75
2023-02-19T12:53:22.387Z,731.25
2023-02-19T12:54:24.011Z,191.25
2023-02-19T12:55:23.964Z,157.5
2023-02-19T12:56:25.102Z,196.88
2023-02-19T12:57:25.450Z,652.5
2023-02-19T12:58:27.376Z,146.25
2023-02-19T12:59:27.345Z,157.5
2023-02-19T13:00:27.327Z,135
2023-02-19T13:01:28.420Z,129.38
2023-02-19T13:02:28.653Z,123.75
2023-02-19T13:03:28.872Z,123.75
2023-02-19T13:04:29.672Z,135
2023-02-19T13:05:30.121Z,163.13
2023-02-19T13:06:31.717Z,140.63
2023-02-19T13:07:31.426Z,534.38
2023-02-19T13:08:33.976Z,540
2023-02-19T13:09:33.013Z,168.75
2023-02-19T13:10:32.658Z,146.25
2023-02-19T13:11:36.546Z,123.75
2023-02-19T13:12:35.202Z,101.25
2023-02-19T13:13:35.809Z,101.25
2023-02-19T13:14:35.213Z,95.63
2023-02-19T13:15:36.001Z,95.63
2023-02-19T13:16:37.480Z,360
2023-02-19T13:17:37.499Z,410.63
2023-02-19T13:18:39.830Z,185.63
2023-02-19T13:19:39.037Z,213.75
2023-02-19T13:20:39.693Z,151.88
2023-02-19T13:21:40.590Z,106.88
2023-02-19T13:22:41.519Z,73.13
2023-02-19T13:23:42.164Z,56.25
2023-02-19T13:24:43.096Z,45
2023-02-19T13:25:43.305Z,39.38
2023-02-19T13:26:42.917Z,33.75
2023-02-19T13:28:44.678Z,28.13
2023-02-19T13:29:44.888Z,28.13
2023-02-19T13:30:46.255Z,28.13
2023-02-19T13:31:46.417Z,33.75
2023-02-19T13:32:46.699Z,33.75
2023-02-19T13:33:46.924Z,33.75
2023-02-19T13:34:47.133Z,33.75
2023-02-19T13:35:47.782Z,28.13
2023-02-19T13:36:47.710Z,22.5
2023-02-19T13:37:47.697Z,22.5
2023-02-19T13:38:48.640Z,22.5
2023-02-19T13:39:49.880Z,22.5
2023-02-19T13:40:49.863Z,22.5
2023-02-19T13:41:50.508Z,22.5
2023-02-19T13:42:51.735Z,22.5
2023-02-19T13:43:52.677Z,22.5
2023-02-19T13:44:57.054Z,28.13
2023-02-19T13:45:54.716Z,28.13
2023-02-19T13:46:55.683Z,28.13
2023-02-19T13:47:56.685Z,28.13
2023-02-19T13:48:56.607Z,28.13
2023-02-19T13:49:57.836Z,28.13
2023-02-19T13:50:57.740Z,33.75
2023-02-19T13:51:58.956Z,33.75
2023-02-19T13:52:58.896Z,33.75
2023-02-19T13:53:59.262Z,33.75
2023-02-19T13:55:00.754Z,33.75
2023-02-19T13:56:00.695Z,33.75
2023-02-19T13:57:02.200Z,33.75